Time;durP1;ratioP1;P1;durP2;ratioP2;P2;SDS_P1;SDS_P2;PMS_P1;PMS_P2;Temp;Humidity;BMP_temperature;BMP_pressure;BME280_temperature;BME280_humidity;BME280_pressure;Samples;Min_cycle;Max_cycle;Signal;HPM_P1;HPM_P2
2022/09/17 00:00:11;;;;;;;13.23;8.70;;;26.90;99.90;;;;;;4165853;28;20487;-72
2022/09/17 00:02:24;;;;;;;13.00;9.40;;;26.90;99.90;;;;;;4141710;28;20037;-71
2022/09/17 00:04:39;;;;;;;11.85;9.77;;;27.00;99.90;;;;;;4138470;28;20288;-73
2022/09/17 00:06:44;;;;;;;14.95;10.23;;;27.00;99.90;;;;;;4171584;28;20056;-72
2022/09/17 00:08:48;;;;;;;13.98;10.48;;;27.00;99.90;;;;;;4140204;28;20046;-73
2022/09/17 00:10:55;;;;;;;15.48;11.20;;;27.10;99.90;;;;;;4141193;28;20042;-72
2022/09/17 00:13:07;;;;;;;13.40;11.93;;;27.10;99.90;;;;;;4140379;28;20045;-72
2022/09/17 00:15:32;;;;;;;13.73;10.98;;;27.10;99.90;;;;;;4139632;28;20088;-73
2022/09/17 00:17:42;;;;;;;14.40;10.80;;;27.20;99.90;;;;;;4140513;28;20046;-73
2022/09/17 00:19:49;;;;;;;15.07;11.00;;;27.10;99.90;;;;;;4139441;28;20053;-73
2022/09/17 00:22:00;;;;;;;13.15;10.60;;;27.20;99.90;;;;;;4140761;28;20096;-73
2022/09/17 00:24:07;;;;;;;14.88;9.48;;;27.20;99.90;;;;;;4141532;28;20461;-73
2022/09/17 00:26:14;;;;;;;14.77;8.70;;;27.20;99.90;;;;;;4141915;28;20054;-73
2022/09/17 00:28:27;;;;;;;13.25;9.43;;;27.20;99.90;;;;;;4140606;28;20052;-73
2022/09/17 00:30:41;;;;;;;13.70;9.73;;;27.20;99.90;;;;;;4141269;28;20061;-73
2022/09/17 00:32:56;;;;;;;11.48;9.30;;;27.30;99.90;;;;;;4141724;28;20390;-73
2022/09/17 00:35:05;;;;;;;11.65;9.05;;;27.30;99.90;;;;;;4141537;28;20477;-73
2022/09/17 00:37:18;;;;;;;11.88;8.88;;;27.30;99.90;;;;;;4141600;28;20504;-72
2022/09/17 00:39:23;;;;;;;13.55;8.85;;;27.30;99.90;;;;;;4157261;28;20797;-74
2022/09/17 00:41:47;;;;;;;12.13;8.73;;;27.30;99.90;;;;;;4168203;28;20060;-74
2022/09/17 00:43:53;;;;;;;16.02;9.18;;;27.40;99.90;;;;;;4142585;28;20054;-73
2022/09/17 00:45:58;;;;;;;12.23;9.07;;;27.50;99.90;;;;;;4140908;28;20133;-74
2022/09/17 00:48:05;;;;;;;14.27;8.73;;;27.50;99.90;;;;;;4139282;28;20193;-75
2022/09/17 00:50:41;;;;;;;13.15;8.55;;;27.50;99.90;;;;;;4141671;28;20061;-75
2022/09/17 00:53:11;;;;;;;12.05;8.70;;;27.60;99.90;;;;;;4139502;28;20064;-72
2022/09/17 00:55:40;;;;;;;14.90;8.88;;;27.70;99.90;;;;;;4140867;28;20061;-74
2022/09/17 00:57:44;;;;;;;11.65;7.40;;;27.80;99.90;;;;;;4156243;28;20045;-74
2022/09/17 00:59:49;;;;;;;11.57;7.18;;;27.80;99.90;;;;;;4142226;28;20060;-74
2022/09/17 01:01:55;;;;;;;9.93;7.28;;;27.90;99.90;;;;;;4146952;28;20060;-73
2022/09/17 01:04:00;;;;;;;17.95;8.40;;;28.00;99.90;;;;;;4146757;28;20045;-74
2022/09/17 01:07:04;;;;;;;15.25;6.68;;;28.10;99.90;;;;;;4147577;28;20048;-74
2022/09/17 01:09:41;;;;;;;12.98;7.30;;;28.20;99.90;;;;;;4144460;28;20046;-74
2022/09/17 01:12:27;;;;;;;11.23;6.35;;;28.30;99.90;;;;;;4146676;28;20041;-74
2022/09/17 01:15:19;;;;;;;10.45;6.63;;;28.30;99.90;;;;;;4145255;28;20054;-74
2022/09/17 01:17:50;;;;;;;8.93;6.43;;;28.30;99.90;;;;;;4146966;28;20503;-74
2022/09/17 01:20:32;;;;;;;8.10;6.20;;;28.30;99.90;;;;;;4145548;28;20060;-74
2022/09/17 01:23:03;;;;;;;9.05;5.85;;;28.40;99.90;;;;;;4146272;28;20088;-75
2022/09/17 01:25:43;;;;;;;11.50;6.03;;;28.40;99.90;;;;;;4146508;28;20054;-74
2022/09/17 01:28:37;;;;;;;9.68;5.85;;;28.50;99.90;;;;;;4160630;28;20076;-74
2022/09/17 01:31:37;;;;;;;8.35;5.38;;;28.50;99.90;;;;;;4146351;28;20409;-70
2022/09/17 01:34:01;;;;;;;10.15;5.63;;;28.60;99.90;;;;;;4145826;28;20050;-73
2022/09/17 01:36:37;;;;;;;11.75;5.53;;;28.70;99.90;;;;;;4127212;28;20122;-74
2022/09/17 01:39:10;;;;;;;10.43;5.32;;;28.70;99.90;;;;;;4144271;28;20136;-74
2022/09/17 01:41:30;;;;;;;9.93;5.07;;;28.60;99.90;;;;;;4146845;28;20104;-74
2022/09/17 01:44:05;;;;;;;8.00;4.85;;;28.60;99.90;;;;;;4147299;28;20034;-74
2022/09/17 01:46:19;;;;;;;10.55;4.90;;;28.60;99.90;;;;;;4144329;28;20076;-74
2022/09/17 01:48:35;;;;;;;7.65;4.43;;;28.60;99.90;;;;;;4146593;28;20049;-74
2022/09/17 01:50:53;;;;;;;10.73;4.95;;;28.60;99.90;;;;;;4146711;28;20049;-70
2022/09/17 01:52:59;;;;;;;16.23;4.70;;;28.70;99.90;;;;;;4145314;28;20068;-70
2022/09/17 01:55:08;;;;;;;11.27;4.53;;;28.70;99.90;;;;;;4146729;28;20070;-70
2022/09/17 01:57:34;;;;;;;11.75;4.45;;;28.70;99.90;;;;;;4146974;28;20034;-70
2022/09/17 02:00:10;;;;;;;10.48;4.85;;;28.70;99.90;;;;;;4161897;28;20044;-71
2022/09/17 02:02:23;;;;;;;10.27;4.45;;;28.70;99.90;;;;;;4160143;28;20124;-70
2022/09/17 02:04:38;;;;;;;9.90;4.22;;;28.70;99.90;;;;;;4144255;28;20050;-71
2022/09/17 02:06:45;;;;;;;9.15;4.45;;;28.70;99.90;;;;;;4145981;28;20504;-74
2022/09/17 02:09:04;;;;;;;8.10;4.30;;;28.70;99.90;;;;;;4144747;28;20141;-74
2022/09/17 02:11:13;;;;;;;7.50;4.47;;;28.70;99.90;;;;;;4143933;28;20046;-74
2022/09/17 02:13:25;;;;;;;5.32;3.83;;;28.80;99.90;;;;;;4147078;28;20404;-75
2022/09/17 02:15:36;;;;;;;6.05;3.63;;;28.80;99.90;;;;;;4126042;28;20112;-75
2022/09/17 02:18:04;;;;;;;7.50;3.88;;;28.80;99.90;;;;;;4162127;28;20111;-73
2022/09/17 02:20:11;;;;;;;6.03;3.58;;;28.80;99.90;;;;;;4147189;28;20042;-75
2022/09/17 02:22:38;;;;;;;5.80;3.80;;;28.80;99.90;;;;;;4146060;28;20057;-76
2022/09/17 02:25:03;;;;;;;6.07;3.50;;;28.70;99.90;;;;;;4145585;28;20065;-75
2022/09/17 02:27:35;;;;;;;5.78;3.83;;;28.70;99.90;;;;;;4162154;28;20136;-75
2022/09/17 02:29:42;;;;;;;8.65;4.03;;;28.80;99.90;;;;;;4147767;28;20390;-76
2022/09/17 02:31:48;;;;;;;6.70;3.70;;;28.80;99.90;;;;;;4178401;28;20045;-75
2022/09/17 02:33:53;;;;;;;7.65;3.45;;;28.80;99.90;;;;;;4146606;28;20044;-76
2022/09/17 02:36:00;;;;;;;6.15;3.53;;;28.80;99.90;;;;;;4146255;28;20133;-75
2022/09/17 02:38:04;;;;;;;8.93;3.88;;;28.80;99.90;;;;;;4143643;28;20060;-75
2022/09/17 02:40:10;;;;;;;4.97;3.40;;;28.80;99.90;;;;;;4145538;28;20044;-75
2022/09/17 02:42:49;;;;;;;5.78;3.70;;;28.80;99.90;;;;;;4144896;28;20078;-75
2022/09/17 02:45:19;;;;;;;6.90;3.80;;;28.80;99.90;;;;;;4144770;28;20437;-76
2022/09/17 02:48:01;;;;;;;5.93;3.75;;;28.80;99.90;;;;;;4173158;28;20044;-75
2022/09/17 02:50:51;;;;;;;6.38;4.20;;;28.80;99.90;;;;;;4145370;28;20531;-75
2022/09/17 02:53:24;;;;;;;5.55;3.40;;;28.80;99.90;;;;;;4144830;28;20112;-76
2022/09/17 02:55:44;;;;;;;5.38;3.58;;;28.80;99.90;;;;;;4145508;28;20034;-76
2022/09/17 02:58:33;;;;;;;6.20;2.65;;;28.80;99.90;;;;;;4142423;28;20095;-76
2022/09/17 03:00:41;;;;;;;5.45;2.70;;;28.90;99.90;;;;;;4145972;28;20408;-76
2022/09/17 03:03:28;;;;;;;7.13;2.90;;;28.90;99.90;;;;;;4146212;28;20507;-76
2022/09/17 03:05:46;;;;;;;3.75;2.35;;;29.00;99.90;;;;;;4157430;28;20049;-76
2022/09/17 03:07:55;;;;;;;4.35;2.60;;;29.00;99.90;;;;;;4145966;28;20042;-75
2022/09/17 03:10:05;;;;;;;7.13;2.60;;;29.10;99.90;;;;;;4143229;28;20034;-75
2022/09/17 03:12:31;;;;;;;4.85;2.60;;;29.10;99.90;;;;;;4144996;28;20433;-75
2022/09/17 03:14:38;;;;;;;4.00;2.55;;;29.20;99.90;;;;;;4145688;28;20033;-76
2022/09/17 03:16:44;;;;;;;5.82;2.40;;;29.20;99.90;;;;;;4145677;28;20588;-76
2022/09/17 03:18:49;;;;;;;6.40;2.17;;;29.30;99.90;;;;;;4145886;28;20045;-75
2022/09/17 03:20:55;;;;;;;3.38;2.10;;;29.30;99.90;;;;;;4145211;28;20416;-75
2022/09/17 03:23:01;;;;;;;3.33;2.35;;;29.40;99.90;;;;;;4142396;28;20592;-75
2022/09/17 03:25:06;;;;;;;3.13;2.00;;;29.40;99.90;;;;;;4145136;28;20100;-75
2022/09/17 03:27:13;;;;;;;4.93;2.00;;;29.40;99.90;;;;;;4145015;28;20366;-75
2022/09/17 03:29:20;;;;;;;4.32;2.30;;;29.40;99.90;;;;;;4145726;28;20072;-75
2022/09/17 03:31:24;;;;;;;4.18;2.50;;;29.50;99.90;;;;;;4174421;28;20471;-75
2022/09/17 03:33:30;;;;;;;3.50;2.38;;;29.50;99.90;;;;;;4145253;28;20069;-75
2022/09/17 03:35:37;;;;;;;5.53;2.42;;;29.50;99.90;;;;;;4160719;28;20045;-75
2022/09/17 03:37:42;;;;;;;6.10;2.80;;;29.60;99.90;;;;;;4158107;28;20143;-75
2022/09/17 03:39:48;;;;;;;4.88;2.70;;;29.60;99.90;;;;;;4145461;28;20056;-75
2022/09/17 03:41:54;;;;;;;7.10;3.00;;;29.60;99.90;;;;;;4160638;28;20053;-75
2022/09/17 03:43:58;;;;;;;5.15;2.78;;;29.60;99.90;;;;;;4145056;28;20060;-75
2022/09/17 03:46:06;;;;;;;5.68;2.80;;;29.60;99.90;;;;;;4142927;28;20057;-75
2022/09/17 03:48:12;;;;;;;4.75;2.67;;;29.70;99.90;;;;;;4145228;28;20041;-75
2022/09/17 03:50:17;;;;;;;5.10;2.55;;;29.70;99.90;;;;;;4145114;28;20700;-75
2022/09/17 03:52:23;;;;;;;6.72;2.60;;;29.80;99.90;;;;;;4142680;28;20049;-75
2022/09/17 03:54:30;;;;;;;4.78;2.70;;;29.80;99.90;;;;;;4145189;28;20056;-75
2022/09/17 03:56:34;;;;;;;6.22;2.90;;;29.80;99.90;;;;;;4145091;28;20046;-75
2022/09/17 03:58:40;;;;;;;6.57;3.30;;;29.80;99.90;;;;;;4145621;28;20500;-75
2022/09/17 04:00:51;;;;;;;4.40;2.80;;;29.80;99.90;;;;;;4146299;28;20115;-75
2022/09/17 04:02:56;;;;;;;6.10;2.80;;;29.80;99.90;;;;;;4146073;28;20056;-75
2022/09/17 04:05:02;;;;;;;4.90;2.53;;;29.90;99.90;;;;;;4145868;28;20073;-75
2022/09/17 04:07:08;;;;;;;5.53;2.90;;;29.90;99.90;;;;;;4160960;28;20053;-75
2022/09/17 04:09:13;;;;;;;5.30;2.72;;;29.90;99.90;;;;;;4145829;28;20111;-76
2022/09/17 04:11:19;;;;;;;3.65;2.78;;;30.00;99.90;;;;;;4160558;28;20049;-75
2022/09/17 04:13:25;;;;;;;6.65;2.25;;;30.10;99.90;;;;;;4161236;28;20048;-76
2022/09/17 04:15:31;;;;;;;5.55;2.22;;;30.10;99.90;;;;;;4145959;28;20058;-76
2022/09/17 04:17:39;;;;;;;3.72;2.25;;;30.20;99.90;;;;;;4145835;28;20112;-76
2022/09/17 04:19:47;;;;;;;4.10;1.90;;;30.20;99.90;;;;;;4160864;28;20060;-76
2022/09/17 04:21:56;;;;;;;4.47;2.13;;;30.30;99.90;;;;;;4130540;28;20046;-76
2022/09/17 04:24:04;;;;;;;4.22;1.80;;;30.40;99.90;;;;;;4145221;28;20052;-76
2022/09/17 04:26:12;;;;;;;4.45;1.73;;;30.40;99.90;;;;;;4144320;28;20524;-75
2022/09/17 04:28:18;;;;;;;2.28;1.60;;;30.40;99.90;;;;;;4175769;28;20550;-75
2022/09/17 04:30:32;;;;;;;3.15;1.65;;;30.50;99.90;;;;;;4159547;28;20133;-75
2022/09/17 04:32:39;;;;;;;3.42;2.13;;;30.50;99.90;;;;;;4145318;28;20042;-76
2022/09/17 04:34:49;;;;;;;5.15;2.20;;;30.50;99.90;;;;;;4146672;28;20450;-76
2022/09/17 04:36:58;;;;;;;3.35;1.90;;;30.50;99.90;;;;;;4147394;28;20041;-74
2022/09/17 04:39:17;;;;;;;8.07;2.20;;;30.60;99.90;;;;;;4148335;28;20043;-76
2022/09/17 04:41:37;;;;;;;5.47;1.80;;;30.60;99.90;;;;;;4147718;28;20469;-76
2022/09/17 04:44:03;;;;;;;3.15;1.58;;;30.60;99.90;;;;;;4147694;28;20037;-76
2022/09/17 04:46:27;;;;;;;5.97;1.80;;;30.60;99.90;;;;;;4145345;28;20045;-76
2022/09/17 04:48:31;;;;;;;2.95;1.90;;;30.70;99.90;;;;;;4146897;28;20038;-76
2022/09/17 04:50:39;;;;;;;5.43;2.50;;;30.70;99.90;;;;;;4147687;28;20088;-76
2022/09/17 04:52:44;;;;;;;6.70;2.28;;;30.80;99.90;;;;;;4147593;28;20483;-76
2022/09/17 04:54:48;;;;;;;11.52;2.50;;;30.70;99.90;;;;;;4147922;28;20042;-76
2022/09/17 04:56:55;;;;;;;11.27;3.00;;;30.80;99.90;;;;;;4147744;28;20096;-76
2022/09/17 04:59:00;;;;;;;8.73;2.85;;;30.70;99.90;;;;;;4147718;28;20385;-76
2022/09/17 05:01:05;;;;;;;7.10;2.72;;;30.80;99.90;;;;;;4147599;28;20045;-76
2022/09/17 05:03:13;;;;;;;8.70;2.60;;;30.70;99.90;;;;;;4147577;28;20530;-76
2022/09/17 05:05:20;;;;;;;5.22;2.85;;;30.70;99.90;;;;;;4147627;28;20107;-76
2022/09/17 05:07:25;;;;;;;5.25;2.28;;;30.70;99.90;;;;;;4145240;28;20058;-75
2022/09/17 05:09:33;;;;;;;3.53;1.90;;;30.70;99.90;;;;;;4147842;28;20057;-76
2022/09/17 05:11:41;;;;;;;9.88;2.75;;;30.70;99.90;;;;;;4147249;28;20042;-76
2022/09/17 05:13:48;;;;;;;5.97;2.15;;;30.80;99.90;;;;;;4160050;28;20400;-75
2022/09/17 05:15:56;;;;;;;5.15;2.17;;;30.70;99.90;;;;;;4147038;28;20054;-75
2022/09/17 05:18:03;;;;;;;4.65;2.22;;;30.70;99.90;;;;;;4147249;28;20397;-74
2022/09/17 05:20:08;;;;;;;5.32;2.20;;;30.70;99.90;;;;;;4146872;28;20497;-75
2022/09/17 05:22:12;;;;;;;4.53;2.42;;;30.80;99.90;;;;;;4147238;28;20141;-75
2022/09/17 05:24:26;;;;;;;4.18;2.00;;;30.80;99.90;;;;;;4176072;28;20044;-75
2022/09/17 05:26:30;;;;;;;5.20;2.30;;;30.80;99.90;;;;;;4145316;28;20505;-75
2022/09/17 05:28:36;;;;;;;5.70;2.05;;;30.90;99.90;;;;;;4146611;28;20038;-75
2022/09/17 05:30:42;;;;;;;4.82;2.13;;;30.90;99.90;;;;;;4147660;28;20065;-75
2022/09/17 05:32:46;;;;;;;3.90;2.25;;;30.90;99.90;;;;;;4161900;28;20045;-75
2022/09/17 05:34:55;;;;;;;6.28;2.22;;;30.90;99.90;;;;;;4141965;28;20042;-75
2022/09/17 05:37:01;;;;;;;5.72;2.05;;;30.90;99.90;;;;;;4144850;28;20485;-74
2022/09/17 05:39:05;;;;;;;6.97;2.05;;;30.90;99.90;;;;;;4147029;28;20053;-75
2022/09/17 05:41:11;;;;;;;7.28;1.92;;;30.90;99.90;;;;;;4178889;28;20069;-75
2022/09/17 05:43:17;;;;;;;4.47;2.15;;;30.90;99.90;;;;;;4147030;28;20061;-75
2022/09/17 05:45:21;;;;;;;3.40;1.45;;;30.90;99.90;;;;;;4144362;28;20042;-75
2022/09/17 05:47:28;;;;;;;3.78;1.75;;;31.00;99.90;;;;;;4146848;28;20052;-75
2022/09/17 05:49:40;;;;;;;2.47;1.52;;;31.00;99.90;;;;;;4144372;28;20473;-75
2022/09/17 05:51:50;;;;;;;3.20;1.67;;;31.10;99.90;;;;;;4146798;28;20489;-75
2022/09/17 05:53:59;;;;;;;2.22;1.60;;;31.10;99.90;;;;;;4175822;28;20049;-75
2022/09/17 05:56:06;;;;;;;3.63;1.42;;;31.00;99.90;;;;;;4146567;28;20054;-75
2022/09/17 05:58:14;;;;;;;5.38;1.63;;;31.00;99.90;;;;;;4146965;28;20386;-74
2022/09/17 06:00:22;;;;;;;3.70;1.60;;;31.00;99.90;;;;;;4142945;28;20041;-75
2022/09/17 06:02:30;;;;;;;4.35;1.50;;;31.10;99.90;;;;;;4145375;28;20386;-75
2022/09/17 06:04:41;;;;;;;3.55;1.48;;;31.10;99.90;;;;;;4156789;28;20046;-75
2022/09/17 06:06:50;;;;;;;2.60;1.40;;;31.10;99.90;;;;;;4146980;28;20394;-75
2022/09/17 06:08:54;;;;;;;2.85;1.50;;;31.20;99.90;;;;;;4146138;28;20050;-75
2022/09/17 06:11:02;;;;;;;2.00;1.33;;;31.20;99.90;;;;;;4143238;28;20053;-75
2022/09/17 06:13:08;;;;;;;2.50;1.65;;;31.20;99.90;;;;;;4145581;28;20042;-75
2022/09/17 06:15:17;;;;;;;3.08;1.35;;;31.20;99.90;;;;;;4145757;28;20050;-75
2022/09/17 06:17:22;;;;;;;4.18;1.42;;;31.20;99.90;;;;;;4178183;28;20088;-75
2022/09/17 06:19:29;;;;;;;2.65;1.30;;;31.30;99.90;;;;;;4146501;28;20080;-75
2022/09/17 06:21:36;;;;;;;4.47;1.35;;;31.30;99.90;;;;;;4146363;28;20481;-75
2022/09/17 06:23:55;;;;;;;3.78;1.55;;;31.30;99.90;;;;;;4146264;28;20064;-74
2022/09/17 06:26:21;;;;;;;3.78;1.60;;;31.40;99.90;;;;;;4145243;28;20074;-75
2022/09/17 06:28:33;;;;;;;3.92;1.48;;;31.40;99.90;;;;;;4146058;28;20096;-75
2022/09/17 06:30:43;;;;;;;;;;;31.40;99.90;;;;;;4144079;28;20084;-74
2022/09/17 06:32:51;;;;;;;6.03;1.40;;;31.50;99.90;;;;;;4146442;28;19932;-74
2022/09/17 06:35:05;;;;;;;5.93;1.52;;;31.50;99.90;;;;;;4144162;28;20077;-75
2022/09/17 06:37:12;;;;;;;2.50;1.40;;;31.60;99.90;;;;;;4161329;28;20042;-74
2022/09/17 06:39:21;;;;;;;6.10;1.50;;;31.60;99.90;;;;;;4158609;28;20061;-75
2022/09/17 06:41:28;;;;;;;2.58;1.45;;;31.60;99.90;;;;;;4146255;28;20057;-74
2022/09/17 06:43:32;;;;;;;5.03;1.45;;;31.70;99.90;;;;;;4146057;28;20085;-75
2022/09/17 06:45:57;;;;;;;2.97;1.40;;;31.80;99.90;;;;;;4143916;28;20127;-76
2022/09/17 06:48:17;;;;;;;3.10;1.20;;;31.90;99.90;;;;;;4145610;28;20069;-75
2022/09/17 06:50:28;;;;;;;;;;;32.10;99.90;;;;;;4145120;28;20049;-75
2022/09/17 06:52:37;;;;;;;1.75;1.30;;;32.10;99.90;;;;;;4145967;28;20428;-74
2022/09/17 06:54:45;;;;;;;4.40;1.60;;;32.20;99.90;;;;;;4142820;28;20054;-76
2022/09/17 06:56:54;;;;;;;5.05;1.45;;;32.40;99.90;;;;;;4143922;28;20048;-76
2022/09/17 06:59:03;;;;;;;4.43;1.30;;;32.40;99.60;;;;;;4142243;28;20054;-75
2022/09/17 07:01:12;;;;;;;3.08;1.20;;;32.40;99.80;;;;;;4143202;28;20559;-75
2022/09/17 07:03:37;;;;;;;2.15;1.10;;;32.40;99.80;;;;;;4143765;28;20038;-74
2022/09/17 07:05:55;;;;;;;2.25;1.38;;;32.40;99.80;;;;;;4142263;28;20050;-74
2022/09/17 07:08:03;;;;;;;3.05;1.23;;;32.30;99.40;;;;;;4158872;28;20136;-74
2022/09/17 07:10:09;;;;;;;3.22;1.30;;;32.40;99.30;;;;;;4145226;28;20038;-73
2022/09/17 07:12:33;;;;;;;2.85;1.08;;;32.40;98.90;;;;;;4142086;28;20050;-73
2022/09/17 07:14:43;;;;;;;4.35;1.70;;;32.40;99.10;;;;;;4160460;28;20129;-74
2022/09/17 07:16:53;;;;;;;4.90;1.30;;;32.50;98.80;;;;;;4145062;28;20524;-73
2022/09/17 07:19:07;;;;;;;2.97;1.60;;;32.50;99.00;;;;;;4145578;28;20049;-73
2022/09/17 07:21:23;;;;;;;2.53;1.63;;;32.60;98.60;;;;;;4156680;28;20127;-73
2022/09/17 07:23:33;;;;;;;1.95;1.35;;;32.60;98.80;;;;;;4143241;28;20524;-74
2022/09/17 07:26:01;;;;;;;3.92;1.60;;;32.70;99.30;;;;;;4142202;28;20488;-74
2022/09/17 07:28:07;;;;;;;3.58;1.38;;;32.60;99.20;;;;;;4156962;28;20045;-74
2022/09/17 07:30:15;;;;;;;4.03;1.35;;;32.70;99.20;;;;;;4141037;28;20300;-73
2022/09/17 07:32:29;;;;;;;4.00;1.50;;;32.70;99.00;;;;;;4141498;28;20081;-73
2022/09/17 07:34:38;;;;;;;5.28;1.73;;;32.80;99.00;;;;;;4155726;28;20447;-73
2022/09/17 07:36:46;;;;;;;4.78;1.50;;;32.80;99.00;;;;;;4141494;28;20091;-73
2022/09/17 07:38:52;;;;;;;6.22;1.77;;;32.70;98.90;;;;;;4142249;28;20409;-73
2022/09/17 07:41:06;;;;;;;3.25;1.60;;;32.70;98.90;;;;;;4141680;28;20084;-73
2022/09/17 07:43:34;;;;;;;2.85;1.55;;;32.60;98.40;;;;;;4142032;28;20053;-73
2022/09/17 07:45:52;;;;;;;4.88;2.33;;;32.50;98.60;;;;;;4144465;28;20080;-74
2022/09/17 07:48:06;;;;;;;4.50;2.15;;;32.50;98.80;;;;;;4158866;28;20049;-73
2022/09/17 07:50:12;;;;;;;5.18;1.90;;;32.50;98.90;;;;;;4144727;28;20504;-72
2022/09/17 07:52:18;;;;;;;3.28;1.85;;;32.40;99.00;;;;;;4142790;28;20068;-75
2022/09/17 07:54:27;;;;;;;4.10;1.75;;;32.40;99.10;;;;;;4144534;28;20105;-74
2022/09/17 07:56:31;;;;;;;4.07;1.90;;;32.40;99.20;;;;;;4140469;28;20481;-75
2022/09/17 07:58:38;;;;;;;5.57;1.83;;;32.40;99.20;;;;;;4156874;28;20041;-74
2022/09/17 08:00:48;;;;;;;5.68;1.85;;;32.30;99.20;;;;;;4142260;28;20069;-74
2022/09/17 08:03:01;;;;;;;2.85;1.55;;;32.20;99.30;;;;;;4141667;28;20513;-74
2022/09/17 08:05:10;;;;;;;3.83;1.73;;;32.20;99.50;;;;;;4172143;28;20075;-74
2022/09/17 08:07:18;;;;;;;4.25;2.08;;;32.20;99.70;;;;;;4142425;28;20390;-72
2022/09/17 08:09:38;;;;;;;2.78;1.80;;;32.20;99.50;;;;;;4142137;28;20354;-72
2022/09/17 08:11:59;;;;;;;4.15;2.00;;;32.20;99.60;;;;;;4140940;28;20046;-72
2022/09/17 08:14:11;;;;;;;4.07;1.98;;;32.20;99.60;;;;;;4143013;28;20038;-73
2022/09/17 08:16:19;;;;;;;6.20;2.40;;;32.20;99.70;;;;;;4141890;28;20494;-73
2022/09/17 08:18:34;;;;;;;6.60;2.00;;;32.30;99.60;;;;;;4153559;28;20398;-73
2022/09/17 08:20:41;;;;;;;3.53;1.85;;;32.30;99.40;;;;;;4141375;28;20037;-73
2022/09/17 08:22:48;;;;;;;5.05;2.08;;;32.20;99.50;;;;;;4142352;28;20042;-74
2022/09/17 08:24:57;;;;;;;4.10;1.85;;;32.20;99.70;;;;;;4142194;28;20034;-73
2022/09/17 08:27:04;;;;;;;3.60;1.83;;;32.20;99.90;;;;;;4141832;28;20647;-73
2022/09/17 08:29:11;;;;;;;3.30;1.90;;;32.20;99.80;;;;;;4142200;28;20496;-73
2022/09/17 08:31:18;;;;;;;4.03;2.20;;;32.10;99.90;;;;;;4142602;28;20041;-73
2022/09/17 08:33:25;;;;;;;4.05;2.20;;;32.10;99.90;;;;;;4142216;28;20073;-73
2022/09/17 08:35:30;;;;;;;3.88;2.22;;;32.10;99.90;;;;;;4141772;28;20489;-73
2022/09/17 08:37:37;;;;;;;3.20;1.85;;;32.20;99.90;;;;;;4172966;28;20068;-74
2022/09/17 08:39:44;;;;;;;5.25;2.72;;;32.20;99.90;;;;;;4143159;28;20069;-73
2022/09/17 08:42:05;;;;;;;3.65;2.38;;;32.20;99.90;;;;;;4155139;28;20046;-73
2022/09/17 08:44:41;;;;;;;6.00;3.05;;;32.30;99.90;;;;;;4142352;28;20044;-73
2022/09/17 08:47:00;;;;;;;7.78;3.10;;;32.30;99.90;;;;;;4157689;28;20433;-73
2022/09/17 08:49:20;;;;;;;5.95;3.13;;;32.30;99.90;;;;;;4156652;28;20041;-72
2022/09/17 08:52:10;;;;;;;4.40;3.20;;;32.30;99.90;;;;;;4142617;28;20570;-73
2022/09/17 08:54:57;;;;;;;6.85;3.45;;;32.30;99.90;;;;;;4141424;28;20077;-73
2022/09/17 08:57:29;;;;;;;8.57;3.30;;;32.30;99.90;;;;;;4144154;28;20042;-75
2022/09/17 08:59:56;;;;;;;5.38;3.55;;;32.30;99.90;;;;;;4144975;28;20050;-73
2022/09/17 09:02:20;;;;;;;7.95;3.60;;;32.20;99.90;;;;;;4172765;28;20036;-74
2022/09/17 09:05:12;;;;;;;4.93;3.08;;;32.30;99.90;;;;;;4155100;28;20041;-74
2022/09/17 09:07:30;;;;;;;4.57;3.15;;;32.20;99.90;;;;;;4155490;28;20814;-74
2022/09/17 09:09:44;;;;;;;7.90;3.50;;;32.20;99.90;;;;;;4141257;28;20034;-75
2022/09/17 09:11:49;;;;;;;5.57;3.40;;;32.20;99.90;;;;;;4140061;28;20053;-74
2022/09/17 09:14:06;;;;;;;7.35;3.42;;;32.20;99.90;;;;;;4141585;28;20046;-73
2022/09/17 09:16:17;;;;;;;6.60;3.67;;;32.20;99.90;;;;;;4141296;28;20049;-73
2022/09/17 09:18:27;;;;;;;7.30;3.47;;;32.20;99.90;;;;;;4141282;28;20046;-72
2022/09/17 09:20:52;;;;;;;5.25;3.00;;;32.10;99.90;;;;;;4141928;28;20140;-73
2022/09/17 09:23:19;;;;;;;6.07;3.47;;;32.00;99.90;;;;;;4143893;28;20045;-74
2022/09/17 09:25:32;;;;;;;5.55;3.47;;;31.90;99.90;;;;;;4142911;28;20148;-74
2022/09/17 09:28:03;;;;;;;6.55;3.45;;;31.80;99.90;;;;;;4144011;28;20049;-74
2022/09/17 09:30:39;;;;;;;6.50;3.20;;;31.70;99.90;;;;;;4155425;28;20046;-74
2022/09/17 09:33:06;;;;;;;5.65;3.75;;;31.70;99.90;;;;;;4143447;28;20516;-73
2022/09/17 09:35:31;;;;;;;7.68;3.90;;;31.60;99.90;;;;;;4144922;28;20120;-74
2022/09/17 09:38:03;;;;;;;10.50;4.38;;;31.60;99.90;;;;;;4174190;28;20049;-74
2022/09/17 09:40:51;;;;;;;21.23;5.32;;;31.60;99.90;;;;;;4160927;28;20053;-73
2022/09/17 09:43:08;;;;;;;14.40;4.88;;;31.50;99.90;;;;;;4147582;28;20082;-74
2022/09/17 09:45:20;;;;;;;15.70;4.50;;;31.50;99.90;;;;;;4147671;28;20726;-73
2022/09/17 09:47:50;;;;;;;6.28;4.10;;;31.50;99.90;;;;;;4147780;28;20451;-73
2022/09/17 09:50:17;;;;;;;22.15;5.18;;;31.50;99.90;;;;;;4146424;28;20535;-74
2022/09/17 09:52:47;;;;;;;38.10;6.15;;;31.40;99.90;;;;;;4147108;28;20046;-73
2022/09/17 09:55:14;;;;;;;11.10;4.70;;;31.40;99.90;;;;;;4146354;28;20084;-73
2022/09/17 09:57:50;;;;;;;9.13;4.40;;;31.40;99.90;;;;;;4145617;28;20485;-73
2022/09/17 10:00:25;;;;;;;9.73;4.50;;;31.40;99.90;;;;;;4160396;28;20033;-74
2022/09/17 10:02:45;;;;;;;8.07;4.00;;;31.40;99.90;;;;;;4157079;28;20045;-74
2022/09/17 10:05:09;;;;;;;12.38;4.80;;;31.40;99.90;;;;;;4160187;28;20053;-74
2022/09/17 10:07:17;;;;;;;9.40;5.07;;;31.30;99.90;;;;;;4146186;28;20065;-74
2022/09/17 10:09:45;;;;;;;8.38;4.80;;;31.30;99.90;;;;;;4146008;28;20686;-74
2022/09/17 10:12:25;;;;;;;8.18;4.85;;;31.30;99.90;;;;;;4144847;28;20133;-74
2022/09/17 10:14:37;;;;;;;9.73;5.32;;;31.20;99.90;;;;;;4145429;28;20042;-74
2022/09/17 10:17:18;;;;;;;6.70;4.93;;;31.20;99.90;;;;;;4171691;28;20088;-72
2022/09/17 10:19:42;;;;;;;10.57;5.03;;;31.20;99.90;;;;;;4145263;28;20062;-74
2022/09/17 10:22:05;;;;;;;12.02;5.22;;;31.20;99.90;;;;;;4144735;28;20054;-74
2022/09/17 10:24:24;;;;;;;13.90;6.78;;;31.20;99.90;;;;;;4160774;28;20092;-74
2022/09/17 10:26:35;;;;;;;14.98;6.82;;;31.10;99.90;;;;;;4144326;28;20058;-74
2022/09/17 10:28:54;;;;;;;18.92;7.30;;;31.00;99.90;;;;;;4158846;28;20055;-75
2022/09/17 10:31:09;;;;;;;10.98;6.47;;;31.00;99.90;;;;;;4144165;28;20042;-76
2022/09/17 10:33:20;;;;;;;10.85;7.03;;;31.00;99.90;;;;;;4144145;28;20057;-75
2022/09/17 10:35:36;;;;;;;12.30;6.68;;;31.00;99.90;;;;;;4145079;28;20069;-74
2022/09/17 10:37:51;;;;;;;14.20;6.80;;;31.00;99.90;;;;;;4144893;28;20389;-74
2022/09/17 10:40:24;;;;;;;10.80;7.00;;;30.90;99.90;;;;;;4144450;28;20116;-74
2022/09/17 10:42:40;;;;;;;14.75;7.63;;;30.90;99.90;;;;;;4143417;28;20053;-75
2022/09/17 10:44:54;;;;;;;65.93;14.13;;;30.90;99.90;;;;;;4161094;28;20057;-75
2022/09/17 10:47:16;;;;;;;43.17;10.48;;;30.90;99.90;;;;;;4146122;28;20046;-75
2022/09/17 10:49:47;;;;;;;20.77;9.43;;;30.80;99.90;;;;;;4144989;28;20056;-75
2022/09/17 10:52:25;;;;;;;26.15;9.90;;;30.80;99.90;;;;;;4144035;28;20077;-75
2022/09/17 10:55:14;;;;;;;16.23;8.07;;;30.80;99.90;;;;;;4160067;28;20046;-75
2022/09/17 10:57:31;;;;;;;19.38;8.43;;;30.80;99.90;;;;;;4145353;28;20141;-75
2022/09/17 11:00:14;;;;;;;16.52;8.35;;;30.80;99.90;;;;;;4143763;28;20411;-75
2022/09/17 11:02:53;;;;;;;19.42;10.25;;;30.70;99.90;;;;;;4142510;28;20050;-75
2022/09/17 11:05:22;;;;;;;34.25;17.50;;;30.70;99.90;;;;;;4142767;28;20077;-74
2022/09/17 11:08:06;;;;;;;32.50;16.45;;;30.60;99.90;;;;;;4145719;28;20060;-75
2022/09/17 11:10:35;;;;;;;12.52;5.95;;;30.50;99.90;;;;;;4144003;28;20041;-74
2022/09/17 11:13:07;;;;;;;5.55;2.15;;;30.10;99.90;;;;;;4160410;28;20091;-74
2022/09/17 11:15:33;;;;;;;5.20;2.10;;;29.50;99.90;;;;;;4145427;28;20046;-75
2022/09/17 11:18:10;;;;;;;4.10;1.42;;;29.40;99.90;;;;;;4144853;28;20119;-74
2022/09/17 11:20:31;;;;;;;4.22;1.35;;;29.50;99.90;;;;;;4140725;28;20046;-72
2022/09/17 11:22:58;;;;;;;5.72;1.85;;;29.10;99.90;;;;;;4139521;28;20058;-73
2022/09/17 11:25:34;;;;;;;2.90;1.30;;;29.20;99.90;;;;;;4140889;28;20444;-74
2022/09/17 11:28:06;;;;;;;4.38;1.25;;;29.30;99.90;;;;;;4142600;28;20054;-74
2022/09/17 11:30:22;;;;;;;4.00;1.20;;;28.90;99.90;;;;;;4133859;28;20456;-73
2022/09/17 11:32:48;;;;;;;2.40;1.00;;;28.60;99.90;;;;;;4143219;28;20046;-72
2022/09/17 11:35:21;;;;;;;3.78;1.10;;;28.60;99.90;;;;;;4136740;28;20053;-72
2022/09/17 11:37:42;;;;;;;2.25;0.90;;;28.40;99.90;;;;;;4134484;28;20041;-71
2022/09/17 11:40:05;;;;;;;2.45;0.93;;;28.20;99.90;;;;;;4169585;28;20049;-71
2022/09/17 11:42:41;;;;;;;2.55;1.00;;;28.30;99.90;;;;;;4140548;28;20045;-72
2022/09/17 11:45:33;;;;;;;4.10;1.00;;;28.10;99.90;;;;;;4128256;28;20097;-73
2022/09/17 11:48:02;;;;;;;1.80;0.80;;;27.50;99.90;;;;;;4143060;28;20046;-72